sensor_id;sensor_type;location;lat;lon;timestamp;temperature;humidity
24772;DHT22;12870;52.274;9.754;2022-11-14T00:01:34;7.30;99.90
24772;DHT22;12870;52.274;9.754;2022-11-14T00:03:59;7.30;99.90
24772;DHT22;12870;52.274;9.754;2022-11-14T00:06:25;7.30;99.90
24772;DHT22;12870;52.274;9.754;2022-11-14T00:08:51;7.30;99.90
24772;DHT22;12870;52.274;9.754;2022-11-14T00:11:16;7.20;99.90
24772;DHT22;12870;52.274;9.754;2022-11-14T00:13:42;7.20;99.90
24772;DHT22;12870;52.274;9.754;2022-11-14T00:16:08;7.20;99.90
24772;DHT22;12870;52.274;9.754;2022-11-14T00:18:33;7.20;99.90
24772;DHT22;12870;52.274;9.754;2022-11-14T00:20:59;7.10;99.90
24772;DHT22;12870;52.274;9.754;2022-11-14T00:23:25;7.10;99.90
24772;DHT22;12870;52.274;9.754;2022-11-14T00:25:50;7.10;99.90
24772;DHT22;12870;52.274;9.754;2022-11-14T00:28:16;7.10;99.90
24772;DHT22;12870;52.274;9.754;2022-11-14T00:30:46;7.10;99.90
24772;DHT22;12870;52.274;9.754;2022-11-14T00:33:12;7.10;99.90
24772;DHT22;12870;52.274;9.754;2022-11-14T00:35:38;7.10;99.90
24772;DHT22;12870;52.274;9.754;2022-11-14T00:38:03;7.10;99.90
24772;DHT22;12870;52.274;9.754;2022-11-14T00:40:29;7.10;99.90
24772;DHT22;12870;52.274;9.754;2022-11-14T00:42:54;7.10;99.90
24772;DHT22;12870;52.274;9.754;2022-11-14T00:45:20;7.10;99.90
24772;DHT22;12870;52.274;9.754;2022-11-14T00:47:46;7.10;99.90
24772;DHT22;12870;52.274;9.754;2022-11-14T00:50:12;7.10;99.90
24772;DHT22;12870;52.274;9.754;2022-11-14T00:52:37;7.00;99.90
24772;DHT22;12870;52.274;9.754;2022-11-14T00:55:04;7.00;99.90
24772;DHT22;12870;52.274;9.754;2022-11-14T00:57:29;7.10;99.90
24772;DHT22;12870;52.274;9.754;2022-11-14T00:59:55;7.10;99.90
24772;DHT22;12870;52.274;9.754;2022-11-14T01:02:21;7.10;99.90
24772;DHT22;12870;52.274;9.754;2022-11-14T01:04:47;7.10;99.90
24772;DHT22;12870;52.274;9.754;2022-11-14T01:07:13;7.10;99.90
24772;DHT22;12870;52.274;9.754;2022-11-14T01:09:38;7.00;99.90
24772;DHT22;12870;52.274;9.754;2022-11-14T01:12:04;7.10;99.90
24772;DHT22;12870;52.274;9.754;2022-11-14T01:14:29;7.00;99.90
24772;DHT22;12870;52.274;9.754;2022-11-14T01:16:55;7.00;99.90
24772;DHT22;12870;52.274;9.754;2022-11-14T01:19:21;6.90;99.90
24772;DHT22;12870;52.274;9.754;2022-11-14T01:21:46;7.00;99.90
24772;DHT22;12870;52.274;9.754;2022-11-14T01:24:12;7.00;99.90
24772;DHT22;12870;52.274;9.754;2022-11-14T01:26:38;7.00;99.90
24772;DHT22;12870;52.274;9.754;2022-11-14T01:29:03;7.00;99.90
24772;DHT22;12870;52.274;9.754;2022-11-14T01:31:29;7.00;99.90
24772;DHT22;12870;52.274;9.754;2022-11-14T01:33:54;7.00;99.90
24772;DHT22;12870;52.274;9.754;2022-11-14T01:36:21;7.00;99.90
24772;DHT22;12870;52.274;9.754;2022-11-14T01:38:51;7.00;99.90
24772;DHT22;12870;52.274;9.754;2022-11-14T01:41:17;7.00;99.90
24772;DHT22;12870;52.274;9.754;2022-11-14T01:43:42;7.00;99.90
24772;DHT22;12870;52.274;9.754;2022-11-14T01:46:17;7.00;99.90
24772;DHT22;12870;52.274;9.754;2022-11-14T01:54:38;6.80;99.90
24772;DHT22;12870;52.274;9.754;2022-11-14T01:57:07;6.70;99.90
24772;DHT22;12870;52.274;9.754;2022-11-14T01:59:39;6.80;99.90
24772;DHT22;12870;52.274;9.754;2022-11-14T02:02:18;6.70;99.90
24772;DHT22;12870;52.274;9.754;2022-11-14T02:04:57;6.70;99.90
24772;DHT22;12870;52.274;9.754;2022-11-14T02:07:27;6.60;99.90
24772;DHT22;12870;52.274;9.754;2022-11-14T02:09:53;6.60;99.90
24772;DHT22;12870;52.274;9.754;2022-11-14T02:12:20;6.60;99.90
24772;DHT22;12870;52.274;9.754;2022-11-14T02:14:49;6.60;99.90
24772;DHT22;12870;52.274;9.754;2022-11-14T02:17:17;6.60;99.90
24772;DHT22;12870;52.274;9.754;2022-11-14T02:19:52;6.60;99.90
24772;DHT22;12870;52.274;9.754;2022-11-14T02:22:18;6.50;99.90
24772;DHT22;12870;52.274;9.754;2022-11-14T02:24:44;6.50;99.90
24772;DHT22;12870;52.274;9.754;2022-11-14T02:27:12;6.60;99.90
24772;DHT22;12870;52.274;9.754;2022-11-14T02:29:38;6.50;99.90
24772;DHT22;12870;52.274;9.754;2022-11-14T02:32:04;6.50;99.90
24772;DHT22;12870;52.274;9.754;2022-11-14T02:34:30;6.50;99.90
24772;DHT22;12870;52.274;9.754;2022-11-14T02:36:56;6.50;99.90
24772;DHT22;12870;52.274;9.754;2022-11-14T02:39:22;6.50;99.90
24772;DHT22;12870;52.274;9.754;2022-11-14T02:41:49;6.50;99.90
24772;DHT22;12870;52.274;9.754;2022-11-14T02:44:15;6.50;99.90
24772;DHT22;12870;52.274;9.754;2022-11-14T02:46:40;6.50;99.90
24772;DHT22;12870;52.274;9.754;2022-11-14T02:49:06;6.50;99.90
24772;DHT22;12870;52.274;9.754;2022-11-14T02:51:32;6.50;99.90
24772;DHT22;12870;52.274;9.754;2022-11-14T02:53:57;6.50;99.90
24772;DHT22;12870;52.274;9.754;2022-11-14T02:56:23;6.50;99.90
24772;DHT22;12870;52.274;9.754;2022-11-14T02:58:48;6.50;99.90
24772;DHT22;12870;52.274;9.754;2022-11-14T03:01:14;6.40;99.90
24772;DHT22;12870;52.274;9.754;2022-11-14T03:03:40;6.40;99.90
24772;DHT22;12870;52.274;9.754;2022-11-14T03:06:05;6.40;99.90
24772;DHT22;12870;52.274;9.754;2022-11-14T03:08:31;6.40;99.90
24772;DHT22;12870;52.274;9.754;2022-11-14T03:11:03;6.40;99.90
24772;DHT22;12870;52.274;9.754;2022-11-14T03:13:29;6.40;99.90
24772;DHT22;12870;52.274;9.754;2022-11-14T03:15:55;6.30;99.90
24772;DHT22;12870;52.274;9.754;2022-11-14T03:18:21;6.30;99.90
24772;DHT22;12870;52.274;9.754;2022-11-14T03:20:47;6.30;99.90
24772;DHT22;12870;52.274;9.754;2022-11-14T03:23:12;6.30;99.90
24772;DHT22;12870;52.274;9.754;2022-11-14T03:25:38;6.30;99.90
24772;DHT22;12870;52.274;9.754;2022-11-14T03:28:04;6.20;99.90
24772;DHT22;12870;52.274;9.754;2022-11-14T03:30:30;6.20;99.90
24772;DHT22;12870;52.274;9.754;2022-11-14T03:32:56;6.20;99.90
24772;DHT22;12870;52.274;9.754;2022-11-14T03:35:22;6.20;99.90
24772;DHT22;12870;52.274;9.754;2022-11-14T03:37:48;6.20;99.90
24772;DHT22;12870;52.274;9.754;2022-11-14T03:40:14;6.20;99.90
24772;DHT22;12870;52.274;9.754;2022-11-14T03:42:39;6.20;99.90
24772;DHT22;12870;52.274;9.754;2022-11-14T03:45:06;6.20;99.90
24772;DHT22;12870;52.274;9.754;2022-11-14T03:47:31;6.20;99.90
24772;DHT22;12870;52.274;9.754;2022-11-14T03:49:57;6.10;99.90
24772;DHT22;12870;52.274;9.754;2022-11-14T03:52:22;6.20;99.90
24772;DHT22;12870;52.274;9.754;2022-11-14T03:54:50;6.20;99.90
24772;DHT22;12870;52.274;9.754;2022-11-14T03:57:16;6.20;99.90
24772;DHT22;12870;52.274;9.754;2022-11-14T03:59:42;6.20;99.90
24772;DHT22;12870;52.274;9.754;2022-11-14T04:02:07;6.10;99.90
24772;DHT22;12870;52.274;9.754;2022-11-14T04:04:33;6.20;99.90
24772;DHT22;12870;52.274;9.754;2022-11-14T04:06:59;6.10;99.90
24772;DHT22;12870;52.274;9.754;2022-11-14T04:09:24;6.20;99.90
24772;DHT22;12870;52.274;9.754;2022-11-14T04:11:50;6.20;99.90
24772;DHT22;12870;52.274;9.754;2022-11-14T04:14:16;6.10;99.90
24772;DHT22;12870;52.274;9.754;2022-11-14T04:16:41;6.10;99.90
24772;DHT22;12870;52.274;9.754;2022-11-14T04:19:07;6.10;99.90
24772;DHT22;12870;52.274;9.754;2022-11-14T04:21:33;6.10;99.90
24772;DHT22;12870;52.274;9.754;2022-11-14T04:23:58;6.10;99.90
24772;DHT22;12870;52.274;9.754;2022-11-14T04:26:24;6.00;99.90
24772;DHT22;12870;52.274;9.754;2022-11-14T04:28:49;6.00;99.90
24772;DHT22;12870;52.274;9.754;2022-11-14T04:31:15;6.10;99.90
24772;DHT22;12870;52.274;9.754;2022-11-14T04:33:41;6.10;99.90
24772;DHT22;12870;52.274;9.754;2022-11-14T04:36:07;6.10;99.90
24772;DHT22;12870;52.274;9.754;2022-11-14T04:38:32;6.10;99.90
24772;DHT22;12870;52.274;9.754;2022-11-14T04:40:58;6.10;99.90
24772;DHT22;12870;52.274;9.754;2022-11-14T04:43:23;6.10;99.90
24772;DHT22;12870;52.274;9.754;2022-11-14T04:45:49;6.10;99.90
24772;DHT22;12870;52.274;9.754;2022-11-14T04:48:15;6.10;99.90
24772;DHT22;12870;52.274;9.754;2022-11-14T04:50:41;6.00;99.90
24772;DHT22;12870;52.274;9.754;2022-11-14T04:53:06;6.00;99.90
24772;DHT22;12870;52.274;9.754;2022-11-14T04:55:32;6.00;99.90
24772;DHT22;12870;52.274;9.754;2022-11-14T04:57:58;6.00;99.90
24772;DHT22;12870;52.274;9.754;2022-11-14T05:00:24;6.00;99.90
24772;DHT22;12870;52.274;9.754;2022-11-14T05:02:50;6.00;99.90
24772;DHT22;12870;52.274;9.754;2022-11-14T05:05:16;6.00;99.90
24772;DHT22;12870;52.274;9.754;2022-11-14T05:07:42;6.00;99.90
24772;DHT22;12870;52.274;9.754;2022-11-14T05:10:08;6.00;99.90
24772;DHT22;12870;52.274;9.754;2022-11-14T05:12:34;6.10;99.90
24772;DHT22;12870;52.274;9.754;2022-11-14T05:14:59;6.10;99.90
24772;DHT22;12870;52.274;9.754;2022-11-14T05:17:26;6.10;99.90
24772;DHT22;12870;52.274;9.754;2022-11-14T05:19:52;6.10;99.90
24772;DHT22;12870;52.274;9.754;2022-11-14T05:22:18;6.10;99.90
24772;DHT22;12870;52.274;9.754;2022-11-14T05:24:43;6.10;99.90
24772;DHT22;12870;52.274;9.754;2022-11-14T05:27:09;6.00;99.90
24772;DHT22;12870;52.274;9.754;2022-11-14T05:29:35;5.90;99.90
24772;DHT22;12870;52.274;9.754;2022-11-14T05:32:00;5.90;99.90
24772;DHT22;12870;52.274;9.754;2022-11-14T05:34:26;6.00;99.90
24772;DHT22;12870;52.274;9.754;2022-11-14T05:36:52;5.90;99.90
24772;DHT22;12870;52.274;9.754;2022-11-14T05:39:18;5.90;99.90
24772;DHT22;12870;52.274;9.754;2022-11-14T05:41:44;6.00;99.90
24772;DHT22;12870;52.274;9.754;2022-11-14T05:44:09;6.00;99.90
24772;DHT22;12870;52.274;9.754;2022-11-14T05:46:35;6.00;99.90
24772;DHT22;12870;52.274;9.754;2022-11-14T05:49:01;6.00;99.90
24772;DHT22;12870;52.274;9.754;2022-11-14T05:51:26;5.90;99.90
24772;DHT22;12870;52.274;9.754;2022-11-14T05:53:52;5.90;99.90
24772;DHT22;12870;52.274;9.754;2022-11-14T05:56:19;5.90;99.90
24772;DHT22;12870;52.274;9.754;2022-11-14T05:58:45;5.90;99.90
24772;DHT22;12870;52.274;9.754;2022-11-14T06:01:13;5.90;99.90
24772;DHT22;12870;52.274;9.754;2022-11-14T06:03:41;5.90;99.90
24772;DHT22;12870;52.274;9.754;2022-11-14T06:06:09;5.80;99.90
24772;DHT22;12870;52.274;9.754;2022-11-14T06:08:35;5.80;99.90
24772;DHT22;12870;52.274;9.754;2022-11-14T06:11:03;5.80;99.90
24772;DHT22;12870;52.274;9.754;2022-11-14T06:13:30;5.70;99.90
24772;DHT22;12870;52.274;9.754;2022-11-14T06:16:01;5.70;99.90
24772;DHT22;12870;52.274;9.754;2022-11-14T06:18:28;5.70;99.90
24772;DHT22;12870;52.274;9.754;2022-11-14T06:21:01;5.80;99.90
24772;DHT22;12870;52.274;9.754;2022-11-14T06:23:27;5.80;99.90
24772;DHT22;12870;52.274;9.754;2022-11-14T06:26:04;5.80;99.90
24772;DHT22;12870;52.274;9.754;2022-11-14T06:28:31;5.80;99.90
24772;DHT22;12870;52.274;9.754;2022-11-14T06:31:00;5.80;99.90
24772;DHT22;12870;52.274;9.754;2022-11-14T06:33:27;5.80;99.90
24772;DHT22;12870;52.274;9.754;2022-11-14T06:35:57;5.80;99.90
24772;DHT22;12870;52.274;9.754;2022-11-14T06:38:23;5.90;99.90
24772;DHT22;12870;52.274;9.754;2022-11-14T06:40:49;5.80;99.90
24772;DHT22;12870;52.274;9.754;2022-11-14T06:43:15;5.80;99.90
24772;DHT22;12870;52.274;9.754;2022-11-14T06:45:41;5.80;99.90
24772;DHT22;12870;52.274;9.754;2022-11-14T06:48:06;5.90;99.90
24772;DHT22;12870;52.274;9.754;2022-11-14T06:50:32;5.80;99.90
24772;DHT22;12870;52.274;9.754;2022-11-14T06:52:58;5.80;99.90
24772;DHT22;12870;52.274;9.754;2022-11-14T06:55:24;5.80;99.90
24772;DHT22;12870;52.274;9.754;2022-11-14T06:57:53;5.80;99.90
24772;DHT22;12870;52.274;9.754;2022-11-14T07:00:20;5.80;99.90
24772;DHT22;12870;52.274;9.754;2022-11-14T07:02:46;5.80;99.90
24772;DHT22;12870;52.274;9.754;2022-11-14T07:05:12;5.70;99.90
24772;DHT22;12870;52.274;9.754;2022-11-14T07:07:38;5.80;99.90
24772;DHT22;12870;52.274;9.754;2022-11-14T07:10:04;5.80;99.90
24772;DHT22;12870;52.274;9.754;2022-11-14T07:12:29;5.80;99.90
24772;DHT22;12870;52.274;9.754;2022-11-14T07:14:57;5.80;99.90
24772;DHT22;12870;52.274;9.754;2022-11-14T07:17:23;5.90;99.90
24772;DHT22;12870;52.274;9.754;2022-11-14T07:19:48;5.90;99.90
24772;DHT22;12870;52.274;9.754;2022-11-14T07:22:14;5.90;99.90
24772;DHT22;12870;52.274;9.754;2022-11-14T07:24:40;5.90;99.90
24772;DHT22;12870;52.274;9.754;2022-11-14T07:27:06;5.90;99.90
24772;DHT22;12870;52.274;9.754;2022-11-14T07:29:35;5.90;99.90
24772;DHT22;12870;52.274;9.754;2022-11-14T07:32:01;5.90;99.90
24772;DHT22;12870;52.274;9.754;2022-11-14T07:34:27;5.90;99.90
24772;DHT22;12870;52.274;9.754;2022-11-14T07:36:53;5.90;99.90
24772;DHT22;12870;52.274;9.754;2022-11-14T07:39:19;5.90;99.90
24772;DHT22;12870;52.274;9.754;2022-11-14T07:41:45;6.00;99.90
24772;DHT22;12870;52.274;9.754;2022-11-14T07:44:11;6.00;99.90
24772;DHT22;12870;52.274;9.754;2022-11-14T07:46:36;6.00;99.90
24772;DHT22;12870;52.274;9.754;2022-11-14T07:49:02;6.00;99.90
24772;DHT22;12870;52.274;9.754;2022-11-14T07:51:28;6.00;99.90
24772;DHT22;12870;52.274;9.754;2022-11-14T07:53:53;6.00;99.90
24772;DHT22;12870;52.274;9.754;2022-11-14T07:56:19;6.00;99.90
24772;DHT22;12870;52.274;9.754;2022-11-14T07:58:47;6.00;99.90
24772;DHT22;12870;52.274;9.754;2022-11-14T08:01:13;6.00;99.90
24772;DHT22;12870;52.274;9.754;2022-11-14T08:03:39;6.00;99.90
24772;DHT22;12870;52.274;9.754;2022-11-14T08:06:07;6.10;99.90
24772;DHT22;12870;52.274;9.754;2022-11-14T08:08:34;6.00;99.90
24772;DHT22;12870;52.274;9.754;2022-11-14T08:11:00;6.00;99.90
24772;DHT22;12870;52.274;9.754;2022-11-14T08:13:27;6.00;99.90
24772;DHT22;12870;52.274;9.754;2022-11-14T08:15:53;6.00;99.90
24772;DHT22;12870;52.274;9.754;2022-11-14T08:18:19;6.10;99.90
24772;DHT22;12870;52.274;9.754;2022-11-14T08:20:45;6.10;99.90
24772;DHT22;12870;52.274;9.754;2022-11-14T08:23:10;6.20;99.90
24772;DHT22;12870;52.274;9.754;2022-11-14T08:25:37;6.20;99.90
24772;DHT22;12870;52.274;9.754;2022-11-14T08:28:02;6.20;99.90
24772;DHT22;12870;52.274;9.754;2022-11-14T08:30:28;6.20;99.90
24772;DHT22;12870;52.274;9.754;2022-11-14T08:32:54;6.20;99.90
24772;DHT22;12870;52.274;9.754;2022-11-14T08:35:21;6.20;99.90
24772;DHT22;12870;52.274;9.754;2022-11-14T08:37:47;6.20;99.90
24772;DHT22;12870;52.274;9.754;2022-11-14T08:40:12;6.20;99.90
24772;DHT22;12870;52.274;9.754;2022-11-14T08:42:38;6.20;99.90
24772;DHT22;12870;52.274;9.754;2022-11-14T08:45:04;6.20;99.90
24772;DHT22;12870;52.274;9.754;2022-11-14T08:47:30;6.20;99.90
24772;DHT22;12870;52.274;9.754;2022-11-14T08:49:56;6.20;99.90
24772;DHT22;12870;52.274;9.754;2022-11-14T08:52:21;6.20;99.90
24772;DHT22;12870;52.274;9.754;2022-11-14T08:54:47;6.30;99.90
24772;DHT22;12870;52.274;9.754;2022-11-14T08:57:13;6.30;99.90
24772;DHT22;12870;52.274;9.754;2022-11-14T08:59:40;6.30;99.90
24772;DHT22;12870;52.274;9.754;2022-11-14T09:02:12;6.30;99.90
24772;DHT22;12870;52.274;9.754;2022-11-14T09:04:38;6.30;99.90
24772;DHT22;12870;52.274;9.754;2022-11-14T09:07:04;6.40;99.90
24772;DHT22;12870;52.274;9.754;2022-11-14T09:09:30;6.40;99.90
24772;DHT22;12870;52.274;9.754;2022-11-14T09:11:56;6.50;99.90
24772;DHT22;12870;52.274;9.754;2022-11-14T09:14:22;6.50;99.90
24772;DHT22;12870;52.274;9.754;2022-11-14T09:16:47;6.50;99.90
24772;DHT22;12870;52.274;9.754;2022-11-14T09:19:13;6.50;99.90
24772;DHT22;12870;52.274;9.754;2022-11-14T09:21:39;6.50;99.90
24772;DHT22;12870;52.274;9.754;2022-11-14T09:24:05;6.60;99.90
24772;DHT22;12870;52.274;9.754;2022-11-14T09:26:31;6.60;99.90
24772;DHT22;12870;52.274;9.754;2022-11-14T09:28:57;6.70;99.90
24772;DHT22;12870;52.274;9.754;2022-11-14T09:31:22;6.70;99.90
24772;DHT22;12870;52.274;9.754;2022-11-14T09:33:48;6.70;99.90
24772;DHT22;12870;52.274;9.754;2022-11-14T09:36:14;6.70;99.90
24772;DHT22;12870;52.274;9.754;2022-11-14T09:38:41;6.70;99.90
24772;DHT22;12870;52.274;9.754;2022-11-14T09:46:03;6.90;99.90
24772;DHT22;12870;52.274;9.754;2022-11-14T09:48:36;6.90;99.90
24772;DHT22;12870;52.274;9.754;2022-11-14T09:51:12;6.90;99.90
24772;DHT22;12870;52.274;9.754;2022-11-14T09:56:21;7.10;99.90
24772;DHT22;12870;52.274;9.754;2022-11-14T09:58:49;7.10;99.90
24772;DHT22;12870;52.274;9.754;2022-11-14T10:12:56;7.40;99.90
24772;DHT22;12870;52.274;9.754;2022-11-14T10:15:42;7.30;99.90
24772;DHT22;12870;52.274;9.754;2022-11-14T10:21:00;7.30;99.90
24772;DHT22;12870;52.274;9.754;2022-11-14T10:26:29;7.50;99.90
24772;DHT22;12870;52.274;9.754;2022-11-14T10:39:38;7.70;99.90
24772;DHT22;12870;52.274;9.754;2022-11-14T10:42:22;7.70;99.90
24772;DHT22;12870;52.274;9.754;2022-11-14T10:47:51;8.20;99.90
24772;DHT22;12870;52.274;9.754;2022-11-14T10:50:33;8.40;99.90
24772;DHT22;12870;52.274;9.754;2022-11-14T10:53:05;9.20;99.90
24772;DHT22;12870;52.274;9.754;2022-11-14T10:55:31;10.40;99.90
24772;DHT22;12870;52.274;9.754;2022-11-14T10:57:57;11.60;99.90
24772;DHT22;12870;52.274;9.754;2022-11-14T11:00:23;12.60;99.90
24772;DHT22;12870;52.274;9.754;2022-11-14T11:02:51;13.20;99.90
24772;DHT22;12870;52.274;9.754;2022-11-14T11:05:19;13.70;99.90
24772;DHT22;12870;52.274;9.754;2022-11-14T11:07:47;14.50;99.90
24772;DHT22;12870;52.274;9.754;2022-11-14T11:10:33;15.20;99.90
24772;DHT22;12870;52.274;9.754;2022-11-14T11:13:30;15.70;99.90
24772;DHT22;12870;52.274;9.754;2022-11-14T11:15:58;15.80;99.90
24772;DHT22;12870;52.274;9.754;2022-11-14T11:18:26;16.30;99.90
24772;DHT22;12870;52.274;9.754;2022-11-14T11:23:28;16.30;99.90
24772;DHT22;12870;52.274;9.754;2022-11-14T11:26:06;15.70;99.90
24772;DHT22;12870;52.274;9.754;2022-11-14T11:28:35;14.60;99.90
24772;DHT22;12870;52.274;9.754;2022-11-14T11:31:09;13.60;99.90
24772;DHT22;12870;52.274;9.754;2022-11-14T11:33:38;12.60;99.90
24772;DHT22;12870;52.274;9.754;2022-11-14T11:36:10;12.60;99.90
24772;DHT22;12870;52.274;9.754;2022-11-14T11:38:37;13.70;99.90
24772;DHT22;12870;52.274;9.754;2022-11-14T11:46:24;16.50;99.90
24772;DHT22;12870;52.274;9.754;2022-11-14T11:49:06;17.40;99.90
24772;DHT22;12870;52.274;9.754;2022-11-14T11:51:39;17.70;99.90
24772;DHT22;12870;52.274;9.754;2022-11-14T11:54:27;17.50;99.90
24772;DHT22;12870;52.274;9.754;2022-11-14T11:56:58;17.90;99.90
24772;DHT22;12870;52.274;9.754;2022-11-14T11:59:41;17.80;99.90
24772;DHT22;12870;52.274;9.754;2022-11-14T12:02:24;17.20;99.90
24772;DHT22;12870;52.274;9.754;2022-11-14T12:04:52;17.40;99.90
24772;DHT22;12870;52.274;9.754;2022-11-14T12:07:22;17.40;99.90
24772;DHT22;12870;52.274;9.754;2022-11-14T12:09:49;17.50;99.90
24772;DHT22;12870;52.274;9.754;2022-11-14T12:13:02;17.50;99.90
24772;DHT22;12870;52.274;9.754;2022-11-14T12:27:14;18.10;99.90
24772;DHT22;12870;52.274;9.754;2022-11-14T12:32:41;18.20;99.90
24772;DHT22;12870;52.274;9.754;2022-11-14T12:35:23;18.20;99.90
24772;DHT22;12870;52.274;9.754;2022-11-14T12:37:52;18.30;99.90
24772;DHT22;12870;52.274;9.754;2022-11-14T12:40:26;18.60;99.90
24772;DHT22;12870;52.274;9.754;2022-11-14T12:42:54;19.00;99.90
24772;DHT22;12870;52.274;9.754;2022-11-14T12:48:19;19.20;99.90
24772;DHT22;12870;52.274;9.754;2022-11-14T12:50:45;19.40;99.90
24772;DHT22;12870;52.274;9.754;2022-11-14T12:58:57;19.50;99.90
24772;DHT22;12870;52.274;9.754;2022-11-14T13:11:52;19.30;99.90
24772;DHT22;12870;52.274;9.754;2022-11-14T13:14:53;19.30;99.90
24772;DHT22;12870;52.274;9.754;2022-11-14T13:17:38;19.40;99.90
24772;DHT22;12870;52.274;9.754;2022-11-14T13:20:33;19.30;99.90
24772;DHT22;12870;52.274;9.754;2022-11-14T13:33:44;18.60;99.90
24772;DHT22;12870;52.274;9.754;2022-11-14T13:36:35;18.60;99.90
24772;DHT22;12870;52.274;9.754;2022-11-14T13:39:18;18.60;99.90
24772;DHT22;12870;52.274;9.754;2022-11-14T13:42:33;18.80;99.90
24772;DHT22;12870;52.274;9.754;2022-11-14T13:48:11;18.00;99.90
24772;DHT22;12870;52.274;9.754;2022-11-14T13:50:39;17.20;99.90
24772;DHT22;12870;52.274;9.754;2022-11-14T13:53:26;16.50;99.90
24772;DHT22;12870;52.274;9.754;2022-11-14T14:06:32;14.10;99.90
24772;DHT22;12870;52.274;9.754;2022-11-14T14:09:48;13.90;99.90
24772;DHT22;12870;52.274;9.754;2022-11-14T14:15:16;13.70;99.90
24772;DHT22;12870;52.274;9.754;2022-11-14T14:21:04;12.90;99.90
24772;DHT22;12870;52.274;9.754;2022-11-14T14:23:39;12.40;99.90
24772;DHT22;12870;52.274;9.754;2022-11-14T14:26:28;11.90;99.90
24772;DHT22;12870;52.274;9.754;2022-11-14T14:31:41;11.00;99.90
24772;DHT22;12870;52.274;9.754;2022-11-14T14:34:26;10.90;99.90
24772;DHT22;12870;52.274;9.754;2022-11-14T14:36:54;10.70;99.90
24772;DHT22;12870;52.274;9.754;2022-11-14T14:39:25;10.50;99.90
24772;DHT22;12870;52.274;9.754;2022-11-14T14:41:56;10.30;99.90
24772;DHT22;12870;52.274;9.754;2022-11-14T14:44:37;10.20;99.90
24772;DHT22;12870;52.274;9.754;2022-11-14T14:49:54;10.00;99.90
24772;DHT22;12870;52.274;9.754;2022-11-14T14:52:33;9.90;99.90
24772;DHT22;12870;52.274;9.754;2022-11-14T14:55:01;9.80;99.90
24772;DHT22;12870;52.274;9.754;2022-11-14T14:57:28;9.80;99.90
24772;DHT22;12870;52.274;9.754;2022-11-14T15:00:27;9.70;99.90
24772;DHT22;12870;52.274;9.754;2022-11-14T15:02:55;9.60;99.90
24772;DHT22;12870;52.274;9.754;2022-11-14T15:05:26;9.60;99.90
24772;DHT22;12870;52.274;9.754;2022-11-14T15:07:55;9.50;99.90
24772;DHT22;12870;52.274;9.754;2022-11-14T15:10:23;9.50;99.90
24772;DHT22;12870;52.274;9.754;2022-11-14T15:12:51;9.40;99.90
24772;DHT22;12870;52.274;9.754;2022-11-14T15:15:19;9.40;99.90
24772;DHT22;12870;52.274;9.754;2022-11-14T15:17:47;9.30;99.90
24772;DHT22;12870;52.274;9.754;2022-11-14T15:20:28;9.20;99.90
24772;DHT22;12870;52.274;9.754;2022-11-14T15:25:40;9.00;99.90
24772;DHT22;12870;52.274;9.754;2022-11-14T15:28:18;8.90;99.90
24772;DHT22;12870;52.274;9.754;2022-11-14T15:31:00;8.80;99.90
24772;DHT22;12870;52.274;9.754;2022-11-14T15:33:31;8.70;99.90
24772;DHT22;12870;52.274;9.754;2022-11-14T15:36:08;8.70;99.90
24772;DHT22;12870;52.274;9.754;2022-11-14T15:38:35;8.60;99.90
24772;DHT22;12870;52.274;9.754;2022-11-14T15:41:23;8.60;99.90
24772;DHT22;12870;52.274;9.754;2022-11-14T15:43:53;8.50;99.90
24772;DHT22;12870;52.274;9.754;2022-11-14T15:48:51;8.40;99.90
24772;DHT22;12870;52.274;9.754;2022-11-14T15:51:16;8.30;99.90
24772;DHT22;12870;52.274;9.754;2022-11-14T15:53:47;8.30;99.90
24772;DHT22;12870;52.274;9.754;2022-11-14T15:56:13;8.20;99.90
24772;DHT22;12870;52.274;9.754;2022-11-14T15:58:39;8.20;99.90
24772;DHT22;12870;52.274;9.754;2022-11-14T16:01:12;8.10;99.90
24772;DHT22;12870;52.274;9.754;2022-11-14T16:03:43;8.10;99.90
24772;DHT22;12870;52.274;9.754;2022-11-14T16:06:09;8.00;99.90
24772;DHT22;12870;52.274;9.754;2022-11-14T16:08:35;7.90;99.90
24772;DHT22;12870;52.274;9.754;2022-11-14T16:11:01;7.90;99.90
24772;DHT22;12870;52.274;9.754;2022-11-14T16:13:26;7.80;99.90
24772;DHT22;12870;52.274;9.754;2022-11-14T16:15:52;7.80;99.90
24772;DHT22;12870;52.274;9.754;2022-11-14T16:18:17;7.80;99.90
24772;DHT22;12870;52.274;9.754;2022-11-14T16:20:43;7.80;99.90
24772;DHT22;12870;52.274;9.754;2022-11-14T16:23:11;7.70;99.90
24772;DHT22;12870;52.274;9.754;2022-11-14T16:25:38;7.50;99.90
24772;DHT22;12870;52.274;9.754;2022-11-14T16:28:03;7.80;99.90
24772;DHT22;12870;52.274;9.754;2022-11-14T16:30:29;7.80;99.90
24772;DHT22;12870;52.274;9.754;2022-11-14T16:32:55;7.80;99.90
24772;DHT22;12870;52.274;9.754;2022-11-14T16:35:22;7.80;99.90
24772;DHT22;12870;52.274;9.754;2022-11-14T16:37:49;7.80;99.90
24772;DHT22;12870;52.274;9.754;2022-11-14T16:40:16;7.90;99.90
24772;DHT22;12870;52.274;9.754;2022-11-14T16:42:44;7.80;99.90
24772;DHT22;12870;52.274;9.754;2022-11-14T16:45:10;7.80;99.90
24772;DHT22;12870;52.274;9.754;2022-11-14T16:47:38;7.70;99.90
24772;DHT22;12870;52.274;9.754;2022-11-14T16:50:04;7.70;99.90
24772;DHT22;12870;52.274;9.754;2022-11-14T16:52:30;7.60;99.90
24772;DHT22;12870;52.274;9.754;2022-11-14T16:54:55;7.60;99.90
24772;DHT22;12870;52.274;9.754;2022-11-14T16:57:22;7.50;99.90
24772;DHT22;12870;52.274;9.754;2022-11-14T16:59:47;7.50;99.90
24772;DHT22;12870;52.274;9.754;2022-11-14T17:02:14;7.40;99.90
24772;DHT22;12870;52.274;9.754;2022-11-14T17:04:41;7.40;99.90
24772;DHT22;12870;52.274;9.754;2022-11-14T17:07:07;7.40;99.90
24772;DHT22;12870;52.274;9.754;2022-11-14T17:09:33;7.30;99.90
24772;DHT22;12870;52.274;9.754;2022-11-14T17:11:59;7.30;99.90
24772;DHT22;12870;52.274;9.754;2022-11-14T17:14:24;7.40;99.90
24772;DHT22;12870;52.274;9.754;2022-11-14T17:16:50;7.40;99.90
24772;DHT22;12870;52.274;9.754;2022-11-14T17:19:16;7.40;99.90
24772;DHT22;12870;52.274;9.754;2022-11-14T17:21:42;7.30;99.90
24772;DHT22;12870;52.274;9.754;2022-11-14T17:24:08;7.30;99.90
24772;DHT22;12870;52.274;9.754;2022-11-14T17:26:34;7.30;99.90
24772;DHT22;12870;52.274;9.754;2022-11-14T17:29:02;7.30;99.90
24772;DHT22;12870;52.274;9.754;2022-11-14T17:31:29;7.20;99.90
24772;DHT22;12870;52.274;9.754;2022-11-14T17:33:56;7.20;99.90
24772;DHT22;12870;52.274;9.754;2022-11-14T17:36:23;7.10;99.90
24772;DHT22;12870;52.274;9.754;2022-11-14T17:38:50;7.10;99.90
24772;DHT22;12870;52.274;9.754;2022-11-14T17:41:16;7.00;99.90
24772;DHT22;12870;52.274;9.754;2022-11-14T17:43:42;7.00;99.90
24772;DHT22;12870;52.274;9.754;2022-11-14T17:46:10;6.90;99.90
24772;DHT22;12870;52.274;9.754;2022-11-14T17:48:35;6.90;99.90
24772;DHT22;12870;52.274;9.754;2022-11-14T17:51:06;6.80;99.90
24772;DHT22;12870;52.274;9.754;2022-11-14T17:53:34;6.70;99.90
24772;DHT22;12870;52.274;9.754;2022-11-14T17:56:00;6.70;99.90
24772;DHT22;12870;52.274;9.754;2022-11-14T17:58:27;6.60;99.90